createdAt,value
2018-07-20T00:01:10.447Z,19.60
2018-07-20T00:05:04.654Z,19.60
2018-07-20T00:08:58.665Z,19.60
2018-07-20T00:12:52.945Z,19.50
2018-07-20T00:16:47.048Z,19.40
2018-07-20T00:20:40.443Z,19.40
2018-07-20T00:24:34.438Z,19.30
2018-07-20T00:28:28.508Z,19.30
2018-07-20T00:32:22.429Z,19.30
2018-07-20T00:36:16.348Z,19.20
2018-07-20T00:40:10.856Z,19.10
2018-07-20T00:44:04.841Z,19.10
2018-07-20T00:47:58.862Z,19.00
2018-07-20T00:51:52.827Z,19.10
2018-07-20T00:55:46.834Z,19.00
2018-07-20T00:59:40.822Z,19.00
2018-07-20T01:03:34.863Z,18.90
2018-07-20T01:07:28.824Z,18.80
2018-07-20T01:11:22.814Z,18.80
2018-07-20T01:15:16.850Z,18.70
2018-07-20T01:19:11.010Z,18.70
2018-07-20T01:23:05.566Z,18.70
2018-07-20T01:26:58.950Z,18.60
2018-07-20T01:30:52.835Z,18.60
2018-07-20T01:34:47.328Z,18.60
2018-07-20T01:38:41.235Z,18.60
2018-07-20T01:42:35.126Z,18.70
2018-07-20T01:46:29.063Z,18.80
2018-07-20T01:50:22.989Z,18.80
2018-07-20T01:54:16.943Z,18.80
2018-07-20T01:58:10.876Z,18.90
2018-07-20T02:02:04.937Z,19.00
2018-07-20T02:05:59.034Z,19.00
2018-07-20T02:09:53.041Z,19.00
2018-07-20T02:13:47.031Z,19.00
2018-07-20T02:17:40.957Z,19.00
2018-07-20T02:21:34.430Z,19.00
2018-07-20T02:25:28.345Z,18.90
2018-07-20T02:29:22.316Z,18.80
2018-07-20T02:33:16.291Z,18.70
2018-07-20T02:37:10.414Z,18.60
2018-07-20T02:41:04.426Z,18.50
2018-07-20T02:44:58.327Z,18.40
2018-07-20T02:48:52.241Z,18.30
2018-07-20T02:52:46.290Z,18.20
2018-07-20T02:56:40.292Z,18.20
2018-07-20T03:00:34.231Z,18.10
2018-07-20T03:04:28.199Z,18.00
2018-07-20T03:08:22.076Z,17.90
2018-07-20T03:12:16.104Z,17.80
2018-07-20T03:16:10.074Z,17.80
2018-07-20T03:20:03.482Z,17.80
2018-07-20T03:23:57.491Z,17.70
2018-07-20T03:27:51.465Z,17.70
2018-07-20T03:31:45.402Z,17.70
2018-07-20T03:35:39.377Z,17.70
2018-07-20T03:43:26.830Z,17.70
2018-07-20T03:51:14.554Z,17.70
2018-07-20T03:59:31.138Z,17.70
2018-07-20T04:03:25.063Z,17.80
2018-07-20T04:07:19.867Z,17.90
2018-07-20T04:11:13.724Z,18.00
2018-07-20T04:15:07.783Z,18.10
2018-07-20T04:19:01.180Z,18.30
2018-07-20T04:22:55.249Z,18.50
2018-07-20T04:26:49.246Z,18.70
2018-07-20T04:30:43.170Z,18.80
2018-07-20T04:34:37.138Z,18.80
2018-07-20T04:38:31.017Z,18.60
2018-07-20T04:42:25.017Z,18.60
2018-07-20T04:46:18.950Z,18.60
2018-07-20T04:58:00.206Z,20.60
2018-07-20T05:01:54.195Z,21.60
2018-07-20T05:05:48.445Z,22.20
2018-07-20T05:09:42.637Z,22.00
2018-07-20T05:13:37.030Z,21.90
2018-07-20T05:17:30.883Z,21.30
2018-07-20T05:21:24.913Z,20.80
2018-07-20T05:25:18.317Z,20.60
2018-07-20T05:29:12.291Z,20.50
2018-07-20T05:33:06.330Z,20.50
2018-07-20T05:37:00.360Z,20.50
2018-07-20T05:40:54.497Z,20.70
2018-07-20T05:44:48.443Z,20.90
2018-07-20T05:48:43.577Z,21.00
2018-07-20T05:52:37.574Z,21.20
2018-07-20T05:56:31.501Z,21.30
2018-07-20T06:00:25.600Z,21.40
2018-07-20T06:04:19.806Z,21.40
2018-07-20T06:08:13.926Z,21.40
2018-07-20T06:12:08.138Z,21.50
2018-07-20T06:16:02.736Z,21.50
2018-07-20T06:19:57.108Z,21.60
2018-07-20T06:23:51.725Z,21.60
2018-07-20T06:27:46.128Z,21.60
2018-07-20T06:31:43.937Z,21.80
2018-07-20T06:35:39.012Z,21.90
2018-07-20T06:39:33.752Z,22.00
2018-07-20T06:43:28.189Z,22.00
2018-07-20T06:47:22.399Z,22.10
2018-07-20T06:51:16.526Z,22.20
2018-07-20T06:55:11.321Z,22.30
2018-07-20T06:59:05.471Z,22.40
2018-07-20T07:02:59.565Z,22.40
2018-07-20T07:06:54.685Z,22.60
2018-07-20T07:10:48.753Z,22.70
2018-07-20T07:14:43.005Z,22.80
2018-07-20T07:18:36.651Z,22.90
2018-07-20T07:22:31.918Z,23.00
2018-07-20T07:26:29.566Z,23.10
2018-07-20T07:30:25.495Z,23.10
2018-07-20T07:34:22.515Z,23.20
2018-07-20T07:38:16.891Z,23.30
2018-07-20T07:46:07.185Z,23.50
2018-07-20T07:50:01.941Z,23.50
2018-07-20T07:53:56.505Z,23.50
2018-07-20T07:57:52.231Z,23.60
2018-07-20T08:01:46.917Z,23.70
2018-07-20T08:05:41.901Z,23.80
2018-07-20T08:09:36.161Z,23.90
2018-07-20T08:13:30.293Z,24.00
2018-07-20T08:17:24.202Z,24.10
2018-07-20T08:21:18.302Z,24.30
2018-07-20T08:25:11.712Z,24.40
2018-07-20T08:29:05.745Z,24.50
2018-07-20T08:32:59.710Z,24.60
2018-07-20T08:36:53.613Z,24.70
2018-07-20T08:40:47.597Z,24.80
2018-07-20T08:44:41.550Z,24.90
2018-07-20T08:48:37.158Z,24.90
2018-07-20T08:52:31.065Z,25.00
2018-07-20T08:56:25.112Z,25.20
2018-07-20T09:00:19.073Z,25.50
2018-07-20T09:04:12.996Z,25.60
2018-07-20T09:08:07.040Z,25.60
2018-07-20T09:12:00.999Z,25.80
2018-07-20T09:15:55.059Z,26.00
2018-07-20T09:19:49.022Z,25.90
2018-07-20T09:23:42.506Z,25.90
2018-07-20T09:27:36.546Z,26.10
2018-07-20T09:31:30.539Z,26.00
2018-07-20T09:35:24.586Z,26.10
2018-07-20T09:39:18.784Z,26.20
2018-07-20T09:43:12.911Z,26.30
2018-07-20T09:47:06.993Z,26.30
2018-07-20T09:51:00.975Z,26.40
2018-07-20T09:54:54.971Z,26.40
2018-07-20T09:58:48.971Z,26.50
2018-07-20T10:02:42.987Z,26.60
2018-07-20T10:06:37.516Z,26.70
2018-07-20T10:10:31.496Z,26.60
2018-07-20T10:14:25.743Z,26.60
2018-07-20T10:18:19.984Z,26.60
2018-07-20T10:22:14.243Z,26.60
2018-07-20T10:26:08.398Z,26.70
2018-07-20T10:30:02.005Z,26.80
2018-07-20T10:33:57.386Z,26.80
2018-07-20T10:37:51.643Z,26.90
2018-07-20T10:41:45.683Z,27.00
2018-07-20T10:45:39.639Z,27.00
2018-07-20T10:49:33.799Z,27.00
2018-07-20T10:53:28.539Z,27.10
2018-07-20T10:57:22.903Z,27.10
2018-07-20T11:01:17.712Z,27.20
2018-07-20T11:05:11.720Z,27.40
2018-07-20T11:09:07.550Z,27.60
2018-07-20T11:13:01.487Z,27.70
2018-07-20T11:16:55.408Z,27.90
2018-07-20T11:20:48.896Z,27.80
2018-07-20T11:24:42.834Z,27.80
2018-07-20T11:28:36.792Z,27.70
2018-07-20T11:32:30.748Z,27.70
2018-07-20T11:36:24.822Z,27.50
2018-07-20T11:40:18.924Z,27.30
2018-07-20T11:44:12.931Z,27.50
2018-07-20T11:48:08.156Z,27.50
2018-07-20T11:52:02.169Z,27.60
2018-07-20T11:55:56.178Z,27.60
2018-07-20T11:59:50.142Z,27.70
2018-07-20T12:03:44.278Z,27.80
2018-07-20T12:07:38.280Z,28.00
2018-07-20T12:11:32.395Z,28.20
2018-07-20T12:15:26.349Z,28.20
2018-07-20T12:19:20.191Z,28.10
2018-07-20T12:23:15.411Z,28.10
2018-07-20T12:27:09.802Z,28.10
2018-07-20T12:31:03.889Z,28.40
2018-07-20T12:34:58.254Z,28.70
2018-07-20T12:38:53.123Z,28.80
2018-07-20T12:42:47.193Z,29.00
2018-07-20T12:46:41.275Z,29.30
2018-07-20T12:50:36.164Z,29.20
2018-07-20T12:54:30.141Z,29.20
2018-07-20T12:58:24.205Z,29.10
2018-07-20T13:06:11.788Z,29.20
2018-07-20T13:10:06.094Z,29.40
2018-07-20T13:14:00.120Z,29.30
2018-07-20T13:17:54.084Z,29.30
2018-07-20T13:21:47.472Z,29.20
2018-07-20T13:25:41.414Z,29.20
2018-07-20T13:29:35.620Z,29.10
2018-07-20T13:33:29.678Z,29.00
2018-07-20T13:37:23.736Z,28.90
2018-07-20T13:41:17.787Z,29.00
2018-07-20T13:45:11.805Z,29.10
2018-07-20T13:49:06.109Z,29.20
2018-07-20T13:53:00.081Z,29.30
2018-07-20T13:56:53.999Z,29.50
2018-07-20T14:00:48.936Z,29.60
2018-07-20T14:04:45.056Z,29.80
2018-07-20T14:08:40.794Z,29.70
2018-07-20T14:12:34.877Z,29.70
2018-07-20T14:16:28.886Z,29.80
2018-07-20T14:20:22.345Z,29.90
2018-07-20T14:28:10.171Z,30.00
2018-07-20T14:32:04.200Z,29.90
2018-07-20T14:39:56.466Z,29.90
2018-07-20T14:43:51.323Z,29.70
2018-07-20T14:47:45.390Z,29.60
2018-07-20T14:51:39.536Z,29.50
2018-07-20T14:55:33.734Z,29.70
2018-07-20T14:59:27.704Z,29.90
2018-07-20T15:03:21.786Z,29.90
2018-07-20T15:07:16.455Z,29.90
2018-07-20T15:11:10.650Z,29.90
2018-07-20T15:15:05.225Z,29.70
2018-07-20T15:18:59.633Z,29.60
2018-07-20T15:22:53.362Z,29.80
2018-07-20T15:26:46.214Z,29.90
2018-07-20T15:34:33.727Z,30.00
2018-07-20T15:38:27.815Z,30.00
2018-07-20T15:42:21.847Z,30.00
2018-07-20T15:46:15.875Z,29.90
2018-07-20T15:50:09.815Z,29.90
2018-07-20T15:54:03.820Z,30.00
2018-07-20T15:57:57.782Z,30.20
2018-07-20T16:01:51.746Z,30.20
2018-07-20T16:05:45.738Z,30.20
2018-07-20T16:09:40.058Z,30.20
2018-07-20T16:13:34.008Z,30.20
2018-07-20T16:17:28.084Z,30.20
2018-07-20T16:21:21.826Z,30.20
2018-07-20T16:25:15.941Z,30.10
2018-07-20T16:29:10.024Z,30.20
2018-07-20T16:33:04.280Z,30.30
2018-07-20T16:36:58.933Z,30.30
2018-07-20T16:40:53.759Z,30.30
2018-07-20T16:44:47.888Z,30.20
2018-07-20T16:48:43.021Z,30.20
2018-07-20T16:52:37.762Z,30.10
2018-07-20T16:56:31.881Z,30.10
2018-07-20T17:00:25.843Z,30.10
2018-07-20T17:08:13.524Z,29.70
2018-07-20T17:12:08.022Z,29.40
2018-07-20T17:16:02.092Z,29.10
2018-07-20T17:19:55.604Z,28.80
2018-07-20T17:23:49.649Z,28.60
2018-07-20T17:27:44.168Z,28.50
2018-07-20T17:31:38.227Z,28.40
2018-07-20T17:35:32.437Z,28.40
2018-07-20T17:39:26.619Z,28.40
2018-07-20T17:43:20.714Z,28.40
2018-07-20T17:47:14.739Z,28.40
2018-07-20T17:51:09.112Z,28.40
2018-07-20T17:55:03.484Z,28.40
2018-07-20T17:58:58.029Z,28.40
2018-07-20T18:02:52.167Z,28.20
2018-07-20T18:06:46.323Z,27.90
2018-07-20T18:10:40.569Z,27.70
2018-07-20T18:14:34.484Z,27.60
2018-07-20T18:18:29.511Z,27.40
2018-07-20T18:22:22.994Z,27.30
2018-07-20T18:26:17.025Z,27.10
2018-07-20T18:30:11.145Z,26.90
2018-07-20T18:34:05.164Z,26.70
2018-07-20T18:41:52.786Z,26.50
2018-07-20T18:49:40.402Z,26.30
2018-07-20T18:53:34.566Z,26.20
2018-07-20T18:57:28.661Z,26.10
2018-07-20T19:01:22.641Z,25.90
2018-07-20T19:09:11.988Z,25.80
2018-07-20T19:13:06.033Z,25.80
2018-07-20T19:17:00.167Z,25.70
2018-07-20T19:20:53.524Z,25.70
2018-07-20T19:24:47.542Z,25.60
2018-07-20T19:28:41.592Z,25.50
2018-07-20T19:32:35.585Z,25.50
2018-07-20T19:36:29.450Z,25.50
2018-07-20T19:40:23.481Z,25.40
2018-07-20T19:44:17.360Z,25.40
2018-07-20T19:48:11.292Z,25.50
2018-07-20T19:52:05.301Z,25.50
2018-07-20T19:55:59.221Z,25.40
2018-07-20T19:59:53.227Z,25.40
2018-07-20T20:03:47.222Z,25.30
2018-07-20T20:07:41.150Z,25.30
2018-07-20T20:11:35.112Z,25.30
2018-07-20T20:15:29.078Z,25.20
2018-07-20T20:19:22.466Z,25.10
2018-07-20T20:23:16.376Z,24.90
2018-07-20T20:27:10.303Z,24.80
2018-07-20T20:31:04.349Z,24.70
2018-07-20T20:34:58.281Z,24.50
2018-07-20T20:38:52.239Z,24.40
2018-07-20T20:42:46.144Z,24.00
2018-07-20T20:46:40.558Z,23.50
2018-07-20T20:50:34.579Z,23.00
2018-07-20T20:54:28.499Z,22.50
2018-07-20T20:58:23.162Z,22.00
2018-07-20T21:02:17.086Z,21.60
2018-07-20T21:06:11.044Z,21.40
2018-07-20T21:10:05.435Z,21.20
2018-07-20T21:13:59.331Z,21.10
2018-07-20T21:17:53.294Z,21.10
2018-07-20T21:21:47.250Z,21.20
2018-07-20T21:25:41.290Z,21.30
2018-07-20T21:29:34.647Z,21.40
2018-07-20T21:33:28.530Z,21.50
2018-07-20T21:37:22.444Z,21.60
2018-07-20T21:41:16.479Z,21.80
2018-07-20T21:45:10.510Z,21.70
2018-07-20T21:49:04.523Z,21.70
2018-07-20T21:52:58.487Z,21.70
2018-07-20T21:56:52.419Z,21.60
2018-07-20T22:00:46.338Z,21.60
2018-07-20T22:04:40.385Z,21.70
2018-07-20T22:08:34.287Z,21.80
2018-07-20T22:12:29.127Z,21.80
2018-07-20T22:16:23.077Z,21.80
2018-07-20T22:20:16.493Z,21.80
2018-07-20T22:24:10.368Z,21.80
2018-07-20T22:28:04.299Z,21.70
2018-07-20T22:31:58.208Z,21.70
2018-07-20T22:35:52.118Z,21.80
2018-07-20T22:39:46.077Z,21.80
2018-07-20T22:43:39.967Z,21.90
2018-07-20T22:47:33.865Z,21.90
2018-07-20T22:51:28.711Z,21.90
2018-07-20T22:55:22.635Z,21.90
2018-07-20T22:59:16.566Z,21.90
2018-07-20T23:03:10.438Z,21.90
2018-07-20T23:07:04.322Z,21.90
2018-07-20T23:10:58.309Z,22.00
2018-07-20T23:14:52.263Z,22.00
2018-07-20T23:18:46.230Z,22.00
2018-07-20T23:22:39.751Z,22.00
2018-07-20T23:26:33.650Z,22.00
2018-07-20T23:30:27.543Z,22.00
2018-07-20T23:34:21.470Z,21.90
2018-07-20T23:38:15.358Z,21.90
2018-07-20T23:42:09.266Z,21.90
2018-07-20T23:46:03.150Z,21.90
2018-07-20T23:53:50.540Z,21.50
2018-07-20T23:57:44.738Z,20.20
